FAMM/MBD METAR and TAF weather

Enter ICAO airport designator
Station Type Date Time Source
FAMM METAR 2018/12/12 16:00 UTC NOAA

FAMM 121600Z 26005KT 9999 SCT045 34/02 Q1017 NOSIG


Station Type Date Time Source
FAMM Decoded METAR 2018/12/12 16:00 UTC NOAA

Mafikeng Intl. Ad, South Africa (FAMM) 25-47S 025-32E 1300M
Dec 12, 2018 - 11:00 AM EST / 2018.12.12 1600 UTC
Wind: from the W (260 degrees) at 6 MPH (5 KT):0
Visibility: greater than 7 mile(s):0
Sky conditions: partly cloudy
Temperature: 93 F (34 C)
Dew Point: 35 F (2 C)
Relative Humidity: 13%
Pressure (altimeter): 30.03 in. Hg (1017 hPa)
ob: FAMM 121600Z 26005KT 9999 SCT045 34/02 Q1017 NOSIG
cycle: 16

Station Type Date Time Source
FAMM TAF 2018/12/11 07:00 UTC NOAA

TAF FAMM 110600Z 1107/1118 06012KT CAVOK
BECMG 1112/1114 VRB03KT
BECMG 1116/1118 04007KT TX32/1113Z TN21/1118Z


Example: see airport list